sensor_id;sensor_type;location;lat;lon;timestamp;P1;durP1;ratioP1;P2;durP2;ratioP2
24901;SDS011;31328;51.402;0.016;2023-05-19T00:02:21;9.97;;;4.73;;
24901;SDS011;31328;51.402;0.016;2023-05-19T00:04:48;7.83;;;3.93;;
24901;SDS011;31328;51.402;0.016;2023-05-19T00:07:16;6.53;;;3.90;;
24901;SDS011;31328;51.402;0.016;2023-05-19T00:09:44;6.87;;;4.20;;
24901;SDS011;31328;51.402;0.016;2023-05-19T00:12:11;9.50;;;5.43;;
24901;SDS011;31328;51.402;0.016;2023-05-19T00:14:38;8.13;;;4.30;;
24901;SDS011;31328;51.402;0.016;2023-05-19T00:17:05;5.30;;;4.43;;
24901;SDS011;31328;51.402;0.016;2023-05-19T00:19:32;6.53;;;4.20;;
24901;SDS011;31328;51.402;0.016;2023-05-19T00:21:59;8.30;;;4.27;;
24901;SDS011;31328;51.402;0.016;2023-05-19T00:24:26;7.77;;;4.57;;
24901;SDS011;31328;51.402;0.016;2023-05-19T00:26:52;10.97;;;4.30;;
24901;SDS011;31328;51.402;0.016;2023-05-19T00:29:18;9.03;;;4.50;;
24901;SDS011;31328;51.402;0.016;2023-05-19T00:31:45;7.80;;;4.30;;
24901;SDS011;31328;51.402;0.016;2023-05-19T00:34:12;8.03;;;4.03;;
24901;SDS011;31328;51.402;0.016;2023-05-19T00:36:38;6.20;;;3.90;;
24901;SDS011;31328;51.402;0.016;2023-05-19T00:39:05;9.23;;;3.97;;
24901;SDS011;31328;51.402;0.016;2023-05-19T00:41:32;6.73;;;4.27;;
24901;SDS011;31328;51.402;0.016;2023-05-19T00:43:58;9.17;;;4.40;;
24901;SDS011;31328;51.402;0.016;2023-05-19T00:46:25;4.63;;;3.50;;
24901;SDS011;31328;51.402;0.016;2023-05-19T00:48:51;6.23;;;3.47;;
24901;SDS011;31328;51.402;0.016;2023-05-19T00:51:18;8.70;;;4.43;;
24901;SDS011;31328;51.402;0.016;2023-05-19T00:53:44;8.33;;;3.93;;
24901;SDS011;31328;51.402;0.016;2023-05-19T00:56:14;8.37;;;3.60;;
24901;SDS011;31328;51.402;0.016;2023-05-19T00:58:42;6.53;;;3.27;;
24901;SDS011;31328;51.402;0.016;2023-05-19T01:01:09;4.87;;;3.67;;
24901;SDS011;31328;51.402;0.016;2023-05-19T01:03:36;8.70;;;3.63;;
24901;SDS011;31328;51.402;0.016;2023-05-19T01:06:05;6.50;;;3.20;;
24901;SDS011;31328;51.402;0.016;2023-05-19T01:08:33;6.00;;;3.50;;
24901;SDS011;31328;51.402;0.016;2023-05-19T01:11:02;6.50;;;3.30;;
24901;SDS011;31328;51.402;0.016;2023-05-19T01:13:32;7.87;;;3.90;;
24901;SDS011;31328;51.402;0.016;2023-05-19T01:16:03;7.90;;;3.27;;
24901;SDS011;31328;51.402;0.016;2023-05-19T01:33:05;6.97;;;3.40;;
24901;SDS011;31328;51.402;0.016;2023-05-19T01:35:34;6.87;;;4.03;;
24901;SDS011;31328;51.402;0.016;2023-05-19T01:38:03;6.57;;;3.30;;
24901;SDS011;31328;51.402;0.016;2023-05-19T01:40:36;6.87;;;3.07;;
24901;SDS011;31328;51.402;0.016;2023-05-19T01:43:04;6.23;;;3.30;;
24901;SDS011;31328;51.402;0.016;2023-05-19T01:45:34;7.93;;;3.03;;
24901;SDS011;31328;51.402;0.016;2023-05-19T01:48:03;6.37;;;3.20;;
24901;SDS011;31328;51.402;0.016;2023-05-19T01:50:30;6.37;;;3.37;;
24901;SDS011;31328;51.402;0.016;2023-05-19T01:52:57;5.67;;;2.97;;
24901;SDS011;31328;51.402;0.016;2023-05-19T01:55:24;6.27;;;3.47;;
24901;SDS011;31328;51.402;0.016;2023-05-19T02:00:37;7.37;;;4.37;;
24901;SDS011;31328;51.402;0.016;2023-05-19T02:03:28;8.53;;;3.90;;
24901;SDS011;31328;51.402;0.016;2023-05-19T02:11:46;7.90;;;3.60;;
24901;SDS011;31328;51.402;0.016;2023-05-19T02:14:24;10.37;;;5.10;;
24901;SDS011;31328;51.402;0.016;2023-05-19T02:17:04;7.17;;;3.50;;
24901;SDS011;31328;51.402;0.016;2023-05-19T02:19:32;7.70;;;3.60;;
24901;SDS011;31328;51.402;0.016;2023-05-19T02:22:00;10.37;;;4.53;;
24901;SDS011;31328;51.402;0.016;2023-05-19T02:24:26;6.63;;;3.70;;
24901;SDS011;31328;51.402;0.016;2023-05-19T02:26:53;6.13;;;3.90;;
24901;SDS011;31328;51.402;0.016;2023-05-19T02:29:19;5.10;;;3.77;;
24901;SDS011;31328;51.402;0.016;2023-05-19T02:31:46;8.93;;;4.07;;
24901;SDS011;31328;51.402;0.016;2023-05-19T02:34:12;18.40;;;3.97;;
24901;SDS011;31328;51.402;0.016;2023-05-19T02:36:39;6.53;;;3.33;;
24901;SDS011;31328;51.402;0.016;2023-05-19T02:39:08;8.83;;;4.80;;
24901;SDS011;31328;51.402;0.016;2023-05-19T02:41:36;7.67;;;3.87;;
24901;SDS011;31328;51.402;0.016;2023-05-19T02:44:03;10.33;;;4.20;;
24901;SDS011;31328;51.402;0.016;2023-05-19T02:46:31;5.87;;;4.13;;
24901;SDS011;31328;51.402;0.016;2023-05-19T02:48:57;5.07;;;3.70;;
24901;SDS011;31328;51.402;0.016;2023-05-19T02:51:24;9.43;;;5.07;;
24901;SDS011;31328;51.402;0.016;2023-05-19T02:53:50;6.10;;;3.63;;
24901;SDS011;31328;51.402;0.016;2023-05-19T02:56:17;12.43;;;5.10;;
24901;SDS011;31328;51.402;0.016;2023-05-19T02:58:43;6.77;;;3.90;;
24901;SDS011;31328;51.402;0.016;2023-05-19T03:01:10;9.70;;;4.00;;
24901;SDS011;31328;51.402;0.016;2023-05-19T03:03:36;8.60;;;4.40;;
24901;SDS011;31328;51.402;0.016;2023-05-19T03:06:03;7.63;;;3.93;;
24901;SDS011;31328;51.402;0.016;2023-05-19T03:08:33;6.77;;;3.73;;
24901;SDS011;31328;51.402;0.016;2023-05-19T03:11:01;6.53;;;4.00;;
24901;SDS011;31328;51.402;0.016;2023-05-19T03:13:28;7.93;;;3.80;;
24901;SDS011;31328;51.402;0.016;2023-05-19T03:15:54;8.60;;;5.10;;
24901;SDS011;31328;51.402;0.016;2023-05-19T03:18:24;10.37;;;4.30;;
24901;SDS011;31328;51.402;0.016;2023-05-19T03:20:51;6.97;;;4.53;;
24901;SDS011;31328;51.402;0.016;2023-05-19T03:23:19;8.83;;;4.83;;
24901;SDS011;31328;51.402;0.016;2023-05-19T03:25:46;10.03;;;5.27;;
24901;SDS011;31328;51.402;0.016;2023-05-19T03:28:13;9.50;;;5.90;;
24901;SDS011;31328;51.402;0.016;2023-05-19T03:30:39;9.13;;;4.47;;
24901;SDS011;31328;51.402;0.016;2023-05-19T03:33:11;9.97;;;4.67;;
24901;SDS011;31328;51.402;0.016;2023-05-19T03:35:38;7.53;;;4.83;;
24901;SDS011;31328;51.402;0.016;2023-05-19T03:38:05;11.10;;;4.90;;
24901;SDS011;31328;51.402;0.016;2023-05-19T03:40:32;9.17;;;4.93;;
24901;SDS011;31328;51.402;0.016;2023-05-19T03:43:04;10.97;;;4.77;;
24901;SDS011;31328;51.402;0.016;2023-05-19T03:45:36;9.10;;;5.70;;
24901;SDS011;31328;51.402;0.016;2023-05-19T03:48:17;11.57;;;6.13;;
24901;SDS011;31328;51.402;0.016;2023-05-19T03:51:04;11.87;;;5.77;;
24901;SDS011;31328;51.402;0.016;2023-05-19T03:53:30;9.07;;;5.70;;
24901;SDS011;31328;51.402;0.016;2023-05-19T03:55:57;9.57;;;5.50;;
24901;SDS011;31328;51.402;0.016;2023-05-19T03:58:24;8.40;;;5.53;;
24901;SDS011;31328;51.402;0.016;2023-05-19T04:00:52;8.07;;;5.30;;
24901;SDS011;31328;51.402;0.016;2023-05-19T04:03:19;10.43;;;5.10;;
24901;SDS011;31328;51.402;0.016;2023-05-19T04:05:45;9.87;;;5.00;;
24901;SDS011;31328;51.402;0.016;2023-05-19T04:08:12;8.37;;;4.97;;
24901;SDS011;31328;51.402;0.016;2023-05-19T04:10:39;8.03;;;5.30;;
24901;SDS011;31328;51.402;0.016;2023-05-19T04:13:06;9.40;;;4.77;;
24901;SDS011;31328;51.402;0.016;2023-05-19T04:15:33;11.13;;;5.93;;
24901;SDS011;31328;51.402;0.016;2023-05-19T04:17:59;10.80;;;5.73;;
24901;SDS011;31328;51.402;0.016;2023-05-19T04:20:26;13.37;;;6.37;;
24901;SDS011;31328;51.402;0.016;2023-05-19T04:22:52;10.33;;;5.77;;
24901;SDS011;31328;51.402;0.016;2023-05-19T04:25:18;9.07;;;6.13;;
24901;SDS011;31328;51.402;0.016;2023-05-19T04:27:45;8.63;;;5.40;;
24901;SDS011;31328;51.402;0.016;2023-05-19T04:30:13;10.50;;;5.97;;
24901;SDS011;31328;51.402;0.016;2023-05-19T04:32:47;11.50;;;5.70;;
24901;SDS011;31328;51.402;0.016;2023-05-19T04:35:16;9.37;;;5.80;;
24901;SDS011;31328;51.402;0.016;2023-05-19T04:37:43;11.00;;;5.90;;
24901;SDS011;31328;51.402;0.016;2023-05-19T04:40:15;10.27;;;5.47;;
24901;SDS011;31328;51.402;0.016;2023-05-19T04:42:42;13.27;;;6.33;;
24901;SDS011;31328;51.402;0.016;2023-05-19T04:45:12;10.37;;;6.37;;
24901;SDS011;31328;51.402;0.016;2023-05-19T04:47:41;14.13;;;6.83;;
24901;SDS011;31328;51.402;0.016;2023-05-19T04:50:09;10.97;;;5.67;;
24901;SDS011;31328;51.402;0.016;2023-05-19T04:52:36;12.20;;;6.43;;
24901;SDS011;31328;51.402;0.016;2023-05-19T04:55:04;10.20;;;5.67;;
24901;SDS011;31328;51.402;0.016;2023-05-19T04:57:30;13.90;;;5.73;;
24901;SDS011;31328;51.402;0.016;2023-05-19T04:59:57;14.83;;;6.50;;
24901;SDS011;31328;51.402;0.016;2023-05-19T05:02:27;9.30;;;6.20;;
24901;SDS011;31328;51.402;0.016;2023-05-19T05:04:54;10.37;;;5.00;;
24901;SDS011;31328;51.402;0.016;2023-05-19T05:07:21;9.77;;;5.90;;
24901;SDS011;31328;51.402;0.016;2023-05-19T05:09:50;12.37;;;6.67;;
24901;SDS011;31328;51.402;0.016;2023-05-19T05:12:17;10.40;;;6.47;;
24901;SDS011;31328;51.402;0.016;2023-05-19T05:14:45;8.67;;;6.07;;
24901;SDS011;31328;51.402;0.016;2023-05-19T05:17:12;9.37;;;5.40;;
24901;SDS011;31328;51.402;0.016;2023-05-19T05:19:40;10.63;;;6.07;;
24901;SDS011;31328;51.402;0.016;2023-05-19T05:22:07;9.90;;;5.67;;
24901;SDS011;31328;51.402;0.016;2023-05-19T05:24:37;11.03;;;5.83;;
24901;SDS011;31328;51.402;0.016;2023-05-19T05:27:03;11.33;;;5.87;;
24901;SDS011;31328;51.402;0.016;2023-05-19T05:29:32;13.10;;;7.17;;
24901;SDS011;31328;51.402;0.016;2023-05-19T05:32:01;9.70;;;6.17;;
24901;SDS011;31328;51.402;0.016;2023-05-19T05:34:28;9.13;;;5.03;;
24901;SDS011;31328;51.402;0.016;2023-05-19T05:36:54;10.67;;;6.17;;
24901;SDS011;31328;51.402;0.016;2023-05-19T05:39:21;8.63;;;5.90;;
24901;SDS011;31328;51.402;0.016;2023-05-19T05:41:48;9.77;;;5.17;;
24901;SDS011;31328;51.402;0.016;2023-05-19T05:44:15;11.23;;;6.33;;
24901;SDS011;31328;51.402;0.016;2023-05-19T05:46:43;15.50;;;6.10;;
24901;SDS011;31328;51.402;0.016;2023-05-19T05:49:10;13.57;;;6.93;;
24901;SDS011;31328;51.402;0.016;2023-05-19T05:51:40;13.27;;;6.80;;
24901;SDS011;31328;51.402;0.016;2023-05-19T05:54:08;12.57;;;6.57;;
24901;SDS011;31328;51.402;0.016;2023-05-19T05:56:41;14.37;;;6.67;;
24901;SDS011;31328;51.402;0.016;2023-05-19T05:59:09;12.53;;;6.23;;
24901;SDS011;31328;51.402;0.016;2023-05-19T06:01:35;11.57;;;6.20;;
24901;SDS011;31328;51.402;0.016;2023-05-19T06:04:04;13.27;;;6.77;;
24901;SDS011;31328;51.402;0.016;2023-05-19T06:06:30;13.13;;;6.67;;
24901;SDS011;31328;51.402;0.016;2023-05-19T06:08:59;15.57;;;7.33;;
24901;SDS011;31328;51.402;0.016;2023-05-19T06:11:27;13.50;;;5.93;;
24901;SDS011;31328;51.402;0.016;2023-05-19T06:13:55;10.20;;;5.63;;
24901;SDS011;31328;51.402;0.016;2023-05-19T06:16:42;12.17;;;6.00;;
24901;SDS011;31328;51.402;0.016;2023-05-19T06:19:08;9.33;;;5.60;;
24901;SDS011;31328;51.402;0.016;2023-05-19T06:21:35;10.23;;;6.20;;
24901;SDS011;31328;51.402;0.016;2023-05-19T06:24:02;13.60;;;7.23;;
24901;SDS011;31328;51.402;0.016;2023-05-19T06:26:28;13.03;;;6.60;;
24901;SDS011;31328;51.402;0.016;2023-05-19T06:28:55;12.23;;;6.63;;
24901;SDS011;31328;51.402;0.016;2023-05-19T06:31:22;14.27;;;6.93;;
24901;SDS011;31328;51.402;0.016;2023-05-19T06:33:54;14.17;;;7.40;;
24901;SDS011;31328;51.402;0.016;2023-05-19T06:36:20;12.60;;;7.17;;
24901;SDS011;31328;51.402;0.016;2023-05-19T06:38:47;13.40;;;7.57;;
24901;SDS011;31328;51.402;0.016;2023-05-19T06:41:15;11.73;;;7.38;;
24901;SDS011;31328;51.402;0.016;2023-05-19T06:43:41;11.07;;;6.87;;
24901;SDS011;31328;51.402;0.016;2023-05-19T06:46:12;13.87;;;7.17;;
24901;SDS011;31328;51.402;0.016;2023-05-19T06:48:39;14.70;;;7.10;;
24901;SDS011;31328;51.402;0.016;2023-05-19T06:51:07;11.57;;;7.00;;
24901;SDS011;31328;51.402;0.016;2023-05-19T06:53:37;12.57;;;6.93;;
24901;SDS011;31328;51.402;0.016;2023-05-19T06:56:07;16.08;;;7.28;;
24901;SDS011;31328;51.402;0.016;2023-05-19T06:58:35;10.60;;;6.40;;
24901;SDS011;31328;51.402;0.016;2023-05-19T07:01:05;11.63;;;7.27;;
24901;SDS011;31328;51.402;0.016;2023-05-19T07:03:37;11.83;;;7.10;;
24901;SDS011;31328;51.402;0.016;2023-05-19T07:06:04;14.35;;;7.22;;
24901;SDS011;31328;51.402;0.016;2023-05-19T07:08:31;13.32;;;8.13;;
24901;SDS011;31328;51.402;0.016;2023-05-19T07:11:00;12.82;;;6.60;;
24901;SDS011;31328;51.402;0.016;2023-05-19T07:13:28;14.57;;;7.30;;
24901;SDS011;31328;51.402;0.016;2023-05-19T07:15:55;14.95;;;7.68;;
24901;SDS011;31328;51.402;0.016;2023-05-19T07:18:21;11.25;;;6.75;;
24901;SDS011;31328;51.402;0.016;2023-05-19T07:20:48;13.25;;;6.45;;
24901;SDS011;31328;51.402;0.016;2023-05-19T07:23:16;13.70;;;6.43;;
24901;SDS011;31328;51.402;0.016;2023-05-19T07:25:42;13.73;;;6.65;;
24901;SDS011;31328;51.402;0.016;2023-05-19T07:28:09;15.48;;;7.03;;
24901;SDS011;31328;51.402;0.016;2023-05-19T07:30:35;9.43;;;6.22;;
24901;SDS011;31328;51.402;0.016;2023-05-19T07:33:02;12.07;;;6.70;;
24901;SDS011;31328;51.402;0.016;2023-05-19T07:35:28;11.90;;;6.55;;
24901;SDS011;31328;51.402;0.016;2023-05-19T07:37:55;12.35;;;6.85;;
24901;SDS011;31328;51.402;0.016;2023-05-19T07:40:21;15.98;;;7.35;;
24901;SDS011;31328;51.402;0.016;2023-05-19T07:42:48;13.18;;;7.10;;
24901;SDS011;31328;51.402;0.016;2023-05-19T07:45:15;13.48;;;6.93;;
24901;SDS011;31328;51.402;0.016;2023-05-19T07:47:41;13.63;;;8.02;;
24901;SDS011;31328;51.402;0.016;2023-05-19T07:50:08;15.57;;;8.13;;
24901;SDS011;31328;51.402;0.016;2023-05-19T07:52:34;13.75;;;8.32;;
24901;SDS011;31328;51.402;0.016;2023-05-19T07:55:01;15.35;;;8.43;;
24901;SDS011;31328;51.402;0.016;2023-05-19T07:57:27;16.50;;;8.52;;
24901;SDS011;31328;51.402;0.016;2023-05-19T07:59:54;13.18;;;7.53;;
24901;SDS011;31328;51.402;0.016;2023-05-19T08:02:20;15.88;;;7.85;;
24901;SDS011;31328;51.402;0.016;2023-05-19T08:04:46;12.10;;;7.90;;
24901;SDS011;31328;51.402;0.016;2023-05-19T08:07:14;13.20;;;7.82;;
24901;SDS011;31328;51.402;0.016;2023-05-19T08:09:40;14.65;;;7.97;;
24901;SDS011;31328;51.402;0.016;2023-05-19T08:12:06;19.70;;;9.05;;
24901;SDS011;31328;51.402;0.016;2023-05-19T08:14:33;14.20;;;8.13;;
24901;SDS011;31328;51.402;0.016;2023-05-19T08:16:59;15.52;;;9.07;;
24901;SDS011;31328;51.402;0.016;2023-05-19T08:19:26;17.27;;;9.20;;
24901;SDS011;31328;51.402;0.016;2023-05-19T08:21:52;15.40;;;8.63;;
24901;SDS011;31328;51.402;0.016;2023-05-19T08:24:19;18.00;;;9.25;;
24901;SDS011;31328;51.402;0.016;2023-05-19T08:26:45;15.02;;;8.50;;
24901;SDS011;31328;51.402;0.016;2023-05-19T08:29:12;12.95;;;7.35;;
24901;SDS011;31328;51.402;0.016;2023-05-19T08:31:38;11.63;;;7.20;;
24901;SDS011;31328;51.402;0.016;2023-05-19T08:34:04;16.05;;;9.45;;
24901;SDS011;31328;51.402;0.016;2023-05-19T08:36:31;11.75;;;7.50;;
24901;SDS011;31328;51.402;0.016;2023-05-19T08:38:58;14.25;;;7.45;;
24901;SDS011;31328;51.402;0.016;2023-05-19T08:41:24;13.07;;;6.95;;
24901;SDS011;31328;51.402;0.016;2023-05-19T08:43:51;12.77;;;6.63;;
24901;SDS011;31328;51.402;0.016;2023-05-19T08:46:17;12.13;;;7.03;;
24901;SDS011;31328;51.402;0.016;2023-05-19T08:48:46;12.40;;;7.43;;
24901;SDS011;31328;51.402;0.016;2023-05-19T08:53:49;9.68;;;5.50;;
24901;SDS011;31328;51.402;0.016;2023-05-19T08:56:21;11.25;;;5.28;;
24901;SDS011;31328;51.402;0.016;2023-05-19T08:58:50;11.43;;;4.82;;
24901;SDS011;31328;51.402;0.016;2023-05-19T09:01:17;9.75;;;5.03;;
24901;SDS011;31328;51.402;0.016;2023-05-19T09:03:45;8.88;;;3.95;;
24901;SDS011;31328;51.402;0.016;2023-05-19T09:06:14;8.20;;;3.45;;
24901;SDS011;31328;51.402;0.016;2023-05-19T09:08:40;6.70;;;3.67;;
24901;SDS011;31328;51.402;0.016;2023-05-19T09:11:08;7.60;;;4.30;;
24901;SDS011;31328;51.402;0.016;2023-05-19T09:13:35;6.85;;;3.80;;
24901;SDS011;31328;51.402;0.016;2023-05-19T09:16:01;11.63;;;5.15;;
24901;SDS011;31328;51.402;0.016;2023-05-19T09:18:28;8.65;;;5.28;;
24901;SDS011;31328;51.402;0.016;2023-05-19T09:20:59;8.77;;;4.63;;
24901;SDS011;31328;51.402;0.016;2023-05-19T09:23:27;13.77;;;5.45;;
24901;SDS011;31328;51.402;0.016;2023-05-19T09:26:04;8.73;;;5.63;;
24901;SDS011;31328;51.402;0.016;2023-05-19T09:28:34;10.52;;;5.60;;
24901;SDS011;31328;51.402;0.016;2023-05-19T09:31:06;11.63;;;6.00;;
24901;SDS011;31328;51.402;0.016;2023-05-19T09:33:34;10.00;;;5.13;;
24901;SDS011;31328;51.402;0.016;2023-05-19T09:36:02;11.32;;;5.97;;
24901;SDS011;31328;51.402;0.016;2023-05-19T09:38:38;9.43;;;5.20;;
24901;SDS011;31328;51.402;0.016;2023-05-19T09:41:06;8.82;;;5.05;;
24901;SDS011;31328;51.402;0.016;2023-05-19T09:43:33;9.43;;;5.70;;
24901;SDS011;31328;51.402;0.016;2023-05-19T09:46:04;9.88;;;5.22;;
24901;SDS011;31328;51.402;0.016;2023-05-19T09:48:32;10.07;;;4.78;;
24901;SDS011;31328;51.402;0.016;2023-05-19T09:50:59;10.48;;;5.53;;
24901;SDS011;31328;51.402;0.016;2023-05-19T09:53:28;9.35;;;4.70;;
24901;SDS011;31328;51.402;0.016;2023-05-19T09:55:56;6.30;;;4.63;;
24901;SDS011;31328;51.402;0.016;2023-05-19T09:58:23;9.27;;;4.80;;
24901;SDS011;31328;51.402;0.016;2023-05-19T10:00:49;8.98;;;5.85;;
24901;SDS011;31328;51.402;0.016;2023-05-19T10:03:17;8.32;;;3.90;;
24901;SDS011;31328;51.402;0.016;2023-05-19T10:05:44;7.53;;;4.20;;
24901;SDS011;31328;51.402;0.016;2023-05-19T10:08:11;6.75;;;3.25;;
24901;SDS011;31328;51.402;0.016;2023-05-19T10:10:38;6.65;;;3.30;;
24901;SDS011;31328;51.402;0.016;2023-05-19T10:13:05;8.80;;;3.85;;
24901;SDS011;31328;51.402;0.016;2023-05-19T10:15:33;8.93;;;4.40;;
24901;SDS011;31328;51.402;0.016;2023-05-19T10:18:02;8.77;;;4.60;;
24901;SDS011;31328;51.402;0.016;2023-05-19T10:20:28;11.77;;;5.55;;
24901;SDS011;31328;51.402;0.016;2023-05-19T10:22:56;8.45;;;4.55;;
24901;SDS011;31328;51.402;0.016;2023-05-19T10:25:22;8.48;;;4.70;;
24901;SDS011;31328;51.402;0.016;2023-05-19T10:27:53;10.52;;;4.90;;
24901;SDS011;31328;51.402;0.016;2023-05-19T10:30:42;10.75;;;4.78;;
24901;SDS011;31328;51.402;0.016;2023-05-19T10:33:13;9.38;;;4.82;;
24901;SDS011;31328;51.402;0.016;2023-05-19T10:44:08;5.72;;;3.72;;
24901;SDS011;31328;51.402;0.016;2023-05-19T10:46:41;8.77;;;4.40;;
24901;SDS011;31328;51.402;0.016;2023-05-19T10:49:08;7.30;;;4.50;;
24901;SDS011;31328;51.402;0.016;2023-05-19T10:51:34;7.10;;;4.25;;
24901;SDS011;31328;51.402;0.016;2023-05-19T10:54:02;8.15;;;3.40;;
24901;SDS011;31328;51.402;0.016;2023-05-19T10:56:35;5.63;;;3.78;;
24901;SDS011;31328;51.402;0.016;2023-05-19T10:59:07;7.00;;;4.35;;
24901;SDS011;31328;51.402;0.016;2023-05-19T11:01:53;8.23;;;4.18;;
24901;SDS011;31328;51.402;0.016;2023-05-19T11:04:19;9.35;;;4.28;;
24901;SDS011;31328;51.402;0.016;2023-05-19T11:07:04;7.03;;;3.75;;
24901;SDS011;31328;51.402;0.016;2023-05-19T11:09:30;8.07;;;3.47;;
24901;SDS011;31328;51.402;0.016;2023-05-19T11:12:00;7.53;;;4.72;;
24901;SDS011;31328;51.402;0.016;2023-05-19T11:14:28;9.05;;;3.88;;
24901;SDS011;31328;51.402;0.016;2023-05-19T11:16:56;5.95;;;4.28;;
24901;SDS011;31328;51.402;0.016;2023-05-19T11:19:26;7.70;;;4.85;;
24901;SDS011;31328;51.402;0.016;2023-05-19T11:21:52;8.52;;;4.78;;
24901;SDS011;31328;51.402;0.016;2023-05-19T11:29:58;6.07;;;4.22;;
24901;SDS011;31328;51.402;0.016;2023-05-19T11:32:30;7.63;;;4.50;;
24901;SDS011;31328;51.402;0.016;2023-05-19T11:35:03;8.38;;;4.95;;
24901;SDS011;31328;51.402;0.016;2023-05-19T11:37:30;6.65;;;4.85;;
24901;SDS011;31328;51.402;0.016;2023-05-19T11:39:59;9.35;;;5.07;;
24901;SDS011;31328;51.402;0.016;2023-05-19T11:42:26;6.72;;;3.67;;
24901;SDS011;31328;51.402;0.016;2023-05-19T11:44:56;6.30;;;4.30;;
24901;SDS011;31328;51.402;0.016;2023-05-19T11:47:22;6.40;;;4.28;;
24901;SDS011;31328;51.402;0.016;2023-05-19T11:49:52;7.95;;;3.70;;
24901;SDS011;31328;51.402;0.016;2023-05-19T11:52:21;7.10;;;3.88;;
24901;SDS011;31328;51.402;0.016;2023-05-19T11:54:49;5.18;;;3.42;;
24901;SDS011;31328;51.402;0.016;2023-05-19T11:57:15;5.72;;;3.85;;
24901;SDS011;31328;51.402;0.016;2023-05-19T11:59:42;4.65;;;3.33;;
24901;SDS011;31328;51.402;0.016;2023-05-19T12:02:18;6.13;;;4.05;;
24901;SDS011;31328;51.402;0.016;2023-05-19T12:04:49;9.23;;;3.97;;
24901;SDS011;31328;51.402;0.016;2023-05-19T12:07:20;4.40;;;3.22;;
24901;SDS011;31328;51.402;0.016;2023-05-19T12:09:51;6.57;;;3.30;;
24901;SDS011;31328;51.402;0.016;2023-05-19T12:12:21;6.25;;;3.88;;
24901;SDS011;31328;51.402;0.016;2023-05-19T12:14:48;5.43;;;3.45;;
24901;SDS011;31328;51.402;0.016;2023-05-19T12:17:16;4.22;;;3.08;;
24901;SDS011;31328;51.402;0.016;2023-05-19T12:19:45;6.38;;;3.22;;
24901;SDS011;31328;51.402;0.016;2023-05-19T12:22:13;5.18;;;2.65;;
24901;SDS011;31328;51.402;0.016;2023-05-19T12:24:41;6.03;;;2.58;;
24901;SDS011;31328;51.402;0.016;2023-05-19T12:27:09;5.50;;;3.08;;
24901;SDS011;31328;51.402;0.016;2023-05-19T12:29:37;4.10;;;2.58;;
24901;SDS011;31328;51.402;0.016;2023-05-19T12:32:06;3.35;;;3.05;;
24901;SDS011;31328;51.402;0.016;2023-05-19T12:34:35;5.10;;;2.75;;
24901;SDS011;31328;51.402;0.016;2023-05-19T12:37:06;5.30;;;2.80;;
24901;SDS011;31328;51.402;0.016;2023-05-19T12:39:32;5.85;;;3.22;;
24901;SDS011;31328;51.402;0.016;2023-05-19T12:42:03;5.90;;;3.22;;
24901;SDS011;31328;51.402;0.016;2023-05-19T12:44:36;5.55;;;3.33;;
24901;SDS011;31328;51.402;0.016;2023-05-19T12:47:04;5.88;;;3.97;;
24901;SDS011;31328;51.402;0.016;2023-05-19T12:49:32;6.93;;;3.80;;
24901;SDS011;31328;51.402;0.016;2023-05-19T12:52:01;8.23;;;4.00;;
24901;SDS011;31328;51.402;0.016;2023-05-19T12:54:34;7.80;;;3.67;;
24901;SDS011;31328;51.402;0.016;2023-05-19T12:57:04;8.35;;;5.13;;
24901;SDS011;31328;51.402;0.016;2023-05-19T12:59:32;8.73;;;4.47;;
24901;SDS011;31328;51.402;0.016;2023-05-19T13:01:59;9.07;;;4.32;;
24901;SDS011;31328;51.402;0.016;2023-05-19T13:04:26;10.38;;;5.13;;
24901;SDS011;31328;51.402;0.016;2023-05-19T13:06:53;9.50;;;4.93;;
24901;SDS011;31328;51.402;0.016;2023-05-19T13:09:20;8.80;;;5.55;;
24901;SDS011;31328;51.402;0.016;2023-05-19T13:11:46;12.90;;;5.72;;
24901;SDS011;31328;51.402;0.016;2023-05-19T13:14:17;8.25;;;4.55;;
24901;SDS011;31328;51.402;0.016;2023-05-19T13:16:46;9.18;;;5.50;;
24901;SDS011;31328;51.402;0.016;2023-05-19T13:19:13;7.82;;;4.65;;
24901;SDS011;31328;51.402;0.016;2023-05-19T13:21:42;11.13;;;5.43;;
24901;SDS011;31328;51.402;0.016;2023-05-19T13:24:09;8.43;;;4.97;;
24901;SDS011;31328;51.402;0.016;2023-05-19T13:26:35;9.00;;;5.07;;
24901;SDS011;31328;51.402;0.016;2023-05-19T13:29:01;9.88;;;5.50;;
24901;SDS011;31328;51.402;0.016;2023-05-19T13:31:28;7.38;;;5.10;;
24901;SDS011;31328;51.402;0.016;2023-05-19T13:33:55;7.82;;;4.95;;
24901;SDS011;31328;51.402;0.016;2023-05-19T13:36:22;8.07;;;4.38;;
24901;SDS011;31328;51.402;0.016;2023-05-19T13:38:48;6.88;;;4.35;;
24901;SDS011;31328;51.402;0.016;2023-05-19T13:41:14;7.60;;;4.07;;
24901;SDS011;31328;51.402;0.016;2023-05-19T13:43:42;8.25;;;4.60;;
24901;SDS011;31328;51.402;0.016;2023-05-19T13:46:08;7.97;;;4.38;;
24901;SDS011;31328;51.402;0.016;2023-05-19T13:48:34;6.82;;;3.70;;
24901;SDS011;31328;51.402;0.016;2023-05-19T13:51:01;10.10;;;5.07;;
24901;SDS011;31328;51.402;0.016;2023-05-19T13:53:27;6.05;;;3.67;;
24901;SDS011;31328;51.402;0.016;2023-05-19T13:55:55;8.93;;;4.85;;
24901;SDS011;31328;51.402;0.016;2023-05-19T13:58:22;10.65;;;4.78;;
24901;SDS011;31328;51.402;0.016;2023-05-19T14:00:49;6.15;;;3.95;;
24901;SDS011;31328;51.402;0.016;2023-05-19T14:03:19;6.03;;;4.18;;
24901;SDS011;31328;51.402;0.016;2023-05-19T14:05:48;9.23;;;3.88;;
24901;SDS011;31328;51.402;0.016;2023-05-19T14:08:15;7.38;;;4.15;;
24901;SDS011;31328;51.402;0.016;2023-05-19T14:10:42;9.07;;;4.03;;
24901;SDS011;31328;51.402;0.016;2023-05-19T14:13:08;8.70;;;4.35;;
24901;SDS011;31328;51.402;0.016;2023-05-19T14:15:37;8.40;;;4.30;;
24901;SDS011;31328;51.402;0.016;2023-05-19T14:18:03;5.05;;;3.88;;
24901;SDS011;31328;51.402;0.016;2023-05-19T14:20:30;6.82;;;4.07;;
24901;SDS011;31328;51.402;0.016;2023-05-19T14:22:56;4.63;;;3.15;;
24901;SDS011;31328;51.402;0.016;2023-05-19T14:25:23;8.35;;;3.95;;
24901;SDS011;31328;51.402;0.016;2023-05-19T14:27:49;8.20;;;4.43;;
24901;SDS011;31328;51.402;0.016;2023-05-19T14:30:15;6.78;;;3.75;;
24901;SDS011;31328;51.402;0.016;2023-05-19T14:32:42;7.03;;;4.25;;
24901;SDS011;31328;51.402;0.016;2023-05-19T14:35:08;4.90;;;3.58;;
24901;SDS011;31328;51.402;0.016;2023-05-19T14:37:34;9.35;;;4.15;;
24901;SDS011;31328;51.402;0.016;2023-05-19T14:40:01;6.15;;;3.65;;
24901;SDS011;31328;51.402;0.016;2023-05-19T14:42:29;5.22;;;3.55;;
24901;SDS011;31328;51.402;0.016;2023-05-19T14:44:55;6.78;;;3.95;;
24901;SDS011;31328;51.402;0.016;2023-05-19T14:47:21;8.02;;;4.38;;
24901;SDS011;31328;51.402;0.016;2023-05-19T14:49:48;6.45;;;3.95;;
24901;SDS011;31328;51.402;0.016;2023-05-19T14:52:14;6.80;;;3.58;;
24901;SDS011;31328;51.402;0.016;2023-05-19T14:54:40;7.95;;;4.05;;
24901;SDS011;31328;51.402;0.016;2023-05-19T14:57:07;8.48;;;3.75;;
24901;SDS011;31328;51.402;0.016;2023-05-19T14:59:36;6.80;;;4.07;;
24901;SDS011;31328;51.402;0.016;2023-05-19T15:02:03;8.73;;;3.80;;
24901;SDS011;31328;51.402;0.016;2023-05-19T15:04:30;7.70;;;4.18;;
24901;SDS011;31328;51.402;0.016;2023-05-19T15:06:56;6.38;;;3.65;;
24901;SDS011;31328;51.402;0.016;2023-05-19T15:09:23;4.82;;;3.28;;
24901;SDS011;31328;51.402;0.016;2023-05-19T15:11:49;8.30;;;3.85;;
24901;SDS011;31328;51.402;0.016;2023-05-19T15:14:16;8.25;;;3.90;;
24901;SDS011;31328;51.402;0.016;2023-05-19T15:16:42;9.10;;;4.53;;
24901;SDS011;31328;51.402;0.016;2023-05-19T15:19:08;8.43;;;4.57;;
24901;SDS011;31328;51.402;0.016;2023-05-19T15:21:35;8.95;;;4.63;;
24901;SDS011;31328;51.402;0.016;2023-05-19T15:24:01;8.15;;;4.97;;
24901;SDS011;31328;51.402;0.016;2023-05-19T15:26:28;14.07;;;6.03;;
24901;SDS011;31328;51.402;0.016;2023-05-19T15:28:54;8.27;;;4.88;;